Terminal Aerodrome Forecast
Issued by NWS

Home | Current Version | Previous Version | Graphics & Text | Print | Product List | Glossary On
Versions: 1 2 3 4 5 6 7 8 9 10 11 12 13 14 15 16 17 18 19 20 21 22 23 24 25
000
FTUS43 KABR 222338
TAFPIR
TAF
KPIR 222338Z 2300/2324 35023G28KT P6SM SCT060
     FM230200 36014G22KT P6SM BKN015
     FM230800 04011KT P6SM OVC015
     FM231300 05012G19KT 3SM -SN BR OVC015
     FM231600 05016G24KT 1SM -SN BLSN BR OVC010
     FM232100 02020G28KT 3/4SM -SN BLSN BR OVC015=

USA.gov is the U.S. government's official web portal to all federal, state and local government web resources and services.